sensor_id;sensor_type;location;lat;lon;timestamp;pressure;altitude;pressure_sealevel;temperature;humidity
77062;BME280;65989;51.686;5.138;2023-01-30T00:01:03;101933.78;;;4.63;86.13
77062;BME280;65989;51.686;5.138;2023-01-30T00:03:29;101930.38;;;4.70;85.93
77062;BME280;65989;51.686;5.138;2023-01-30T00:05:54;101937.47;;;4.69;85.85
77062;BME280;65989;51.686;5.138;2023-01-30T00:08:20;101924.13;;;4.71;86.06
77062;BME280;65989;51.686;5.138;2023-01-30T00:10:46;101918.09;;;4.70;85.89
77062;BME280;65989;51.686;5.138;2023-01-30T00:13:13;101924.75;;;4.73;86.15
77062;BME280;65989;51.686;5.138;2023-01-30T00:15:39;101919.34;;;4.74;86.38
77062;BME280;65989;51.686;5.138;2023-01-30T00:18:05;101930.25;;;4.78;86.04
77062;BME280;65989;51.686;5.138;2023-01-30T00:20:30;101926.84;;;4.77;86.20
77062;BME280;65989;51.686;5.138;2023-01-30T00:22:56;101929.91;;;4.81;86.38
77062;BME280;65989;51.686;5.138;2023-01-30T00:25:23;101935.56;;;4.85;86.46
77062;BME280;65989;51.686;5.138;2023-01-30T00:27:49;101934.19;;;4.89;86.32
77062;BME280;65989;51.686;5.138;2023-01-30T00:30:14;101928.78;;;4.90;86.42
77062;BME280;65989;51.686;5.138;2023-01-30T00:32:39;101915.66;;;4.90;86.66
77062;BME280;65989;51.686;5.138;2023-01-30T00:35:05;101908.81;;;4.96;86.77
77062;BME280;65989;51.686;5.138;2023-01-30T00:37:31;101920.94;;;4.97;86.49
77062;BME280;65989;51.686;5.138;2023-01-30T00:39:56;101910.06;;;5.00;86.67
77062;BME280;65989;51.686;5.138;2023-01-30T00:42:22;101909.25;;;5.00;86.56
77062;BME280;65989;51.686;5.138;2023-01-30T00:45:11;101908.88;;;5.03;86.76
77062;BME280;65989;51.686;5.138;2023-01-30T00:47:56;101911.94;;;5.06;86.68
77062;BME280;65989;51.686;5.138;2023-01-30T00:50:22;101916.19;;;5.07;86.85
77062;BME280;65989;51.686;5.138;2023-01-30T00:52:47;101906.53;;;5.15;86.80
77062;BME280;65989;51.686;5.138;2023-01-30T00:55:13;101904.91;;;5.14;86.96
77062;BME280;65989;51.686;5.138;2023-01-30T00:57:39;101895.84;;;5.16;87.27
77062;BME280;65989;51.686;5.138;2023-01-30T01:00:05;101900.91;;;5.18;87.01
77062;BME280;65989;51.686;5.138;2023-01-30T01:02:33;101898.34;;;5.25;87.26
77062;BME280;65989;51.686;5.138;2023-01-30T01:04:58;101890.69;;;5.30;87.34
77062;BME280;65989;51.686;5.138;2023-01-30T01:07:24;101887.88;;;5.31;87.39
77062;BME280;65989;51.686;5.138;2023-01-30T01:09:49;101875.16;;;5.35;87.52
77062;BME280;65989;51.686;5.138;2023-01-30T01:12:15;101872.59;;;5.42;87.41
77062;BME280;65989;51.686;5.138;2023-01-30T01:14:40;101866.13;;;5.44;87.54
77062;BME280;65989;51.686;5.138;2023-01-30T01:17:05;101862.09;;;5.48;87.60
77062;BME280;65989;51.686;5.138;2023-01-30T01:19:31;101872.03;;;5.53;87.79
77062;BME280;65989;51.686;5.138;2023-01-30T01:21:56;101872.47;;;5.57;87.89
77062;BME280;65989;51.686;5.138;2023-01-30T01:24:21;101873.09;;;5.59;87.60
77062;BME280;65989;51.686;5.138;2023-01-30T01:26:47;101884.84;;;5.63;87.86
77062;BME280;65989;51.686;5.138;2023-01-30T01:29:14;101875.75;;;5.65;87.89
77062;BME280;65989;51.686;5.138;2023-01-30T01:31:42;101860.97;;;5.64;87.77
77062;BME280;65989;51.686;5.138;2023-01-30T01:34:08;101852.09;;;5.72;87.89
77062;BME280;65989;51.686;5.138;2023-01-30T01:36:33;101850.09;;;5.74;87.83
77062;BME280;65989;51.686;5.138;2023-01-30T01:38:59;101841.56;;;5.72;87.94
77062;BME280;65989;51.686;5.138;2023-01-30T01:41:25;101821.16;;;5.74;87.93
77062;BME280;65989;51.686;5.138;2023-01-30T01:44:10;101820.38;;;5.80;87.85
77062;BME280;65989;51.686;5.138;2023-01-30T01:46:47;101814.13;;;5.81;88.09
77062;BME280;65989;51.686;5.138;2023-01-30T01:49:20;101825.03;;;5.85;87.85
77062;BME280;65989;51.686;5.138;2023-01-30T01:51:57;101826.47;;;5.88;87.86
77062;BME280;65989;51.686;5.138;2023-01-30T01:57:09;101811.09;;;5.91;87.79
77062;BME280;65989;51.686;5.138;2023-01-30T01:59:44;101823.69;;;5.96;88.02
77062;BME280;65989;51.686;5.138;2023-01-30T02:02:13;101819.44;;;5.95;87.83
77062;BME280;65989;51.686;5.138;2023-01-30T02:04:43;101810.94;;;5.93;87.69
77062;BME280;65989;51.686;5.138;2023-01-30T02:07:34;101804.66;;;5.94;87.79
77062;BME280;65989;51.686;5.138;2023-01-30T02:10:02;101798.56;;;5.93;87.66
77062;BME280;65989;51.686;5.138;2023-01-30T02:12:27;101797.94;;;5.91;87.68
77062;BME280;65989;51.686;5.138;2023-01-30T02:14:55;101785.81;;;5.90;87.88
77062;BME280;65989;51.686;5.138;2023-01-30T02:17:22;101791.69;;;5.92;87.87
77062;BME280;65989;51.686;5.138;2023-01-30T02:20:03;101801.81;;;5.95;87.65
77062;BME280;65989;51.686;5.138;2023-01-30T02:22:39;101791.50;;;5.94;87.73
77062;BME280;65989;51.686;5.138;2023-01-30T02:34:10;101804.84;;;5.99;87.97
77062;BME280;65989;51.686;5.138;2023-01-30T02:42:46;101794.13;;;5.94;87.81
77062;BME280;65989;51.686;5.138;2023-01-30T02:45:43;101793.50;;;5.92;88.19
77062;BME280;65989;51.686;5.138;2023-01-30T02:48:13;101778.53;;;5.86;88.29
77062;BME280;65989;51.686;5.138;2023-01-30T02:50:52;101776.47;;;5.81;88.26
77062;BME280;65989;51.686;5.138;2023-01-30T02:53:21;101768.78;;;5.79;88.63
77062;BME280;65989;51.686;5.138;2023-01-30T02:55:46;101779.91;;;5.75;88.69
77062;BME280;65989;51.686;5.138;2023-01-30T02:58:12;101782.72;;;5.73;88.86
77062;BME280;65989;51.686;5.138;2023-01-30T03:08:56;101760.84;;;5.66;89.35
77062;BME280;65989;51.686;5.138;2023-01-30T03:11:35;101757.41;;;5.65;89.71
77062;BME280;65989;51.686;5.138;2023-01-30T03:16:37;101762.66;;;5.65;89.77
77062;BME280;65989;51.686;5.138;2023-01-30T03:19:05;101756.19;;;5.61;89.75
77062;BME280;65989;51.686;5.138;2023-01-30T03:21:31;101749.72;;;5.64;90.02
77062;BME280;65989;51.686;5.138;2023-01-30T03:23:57;101747.06;;;5.64;90.22
77062;BME280;65989;51.686;5.138;2023-01-30T03:26:25;101755.19;;;5.62;90.32
77062;BME280;65989;51.686;5.138;2023-01-30T03:28:53;101758.81;;;5.61;90.41
77062;BME280;65989;51.686;5.138;2023-01-30T03:31:18;101763.44;;;5.59;90.62
77062;BME280;65989;51.686;5.138;2023-01-30T03:33:44;101751.31;;;5.58;90.75
77062;BME280;65989;51.686;5.138;2023-01-30T03:36:09;101750.53;;;5.58;90.64
77062;BME280;65989;51.686;5.138;2023-01-30T03:38:35;101746.88;;;5.59;90.67
77062;BME280;65989;51.686;5.138;2023-01-30T03:41:02;101740.00;;;5.58;90.86
77062;BME280;65989;51.686;5.138;2023-01-30T03:43:28;101751.13;;;5.60;91.18
77062;BME280;65989;51.686;5.138;2023-01-30T03:45:53;101741.19;;;5.55;90.79
77062;BME280;65989;51.686;5.138;2023-01-30T03:48:19;101750.13;;;5.61;91.28
77062;BME280;65989;51.686;5.138;2023-01-30T03:50:44;101740.00;;;5.58;91.06
77062;BME280;65989;51.686;5.138;2023-01-30T03:53:09;101739.78;;;5.59;91.08
77062;BME280;65989;51.686;5.138;2023-01-30T03:55:35;101749.31;;;5.60;91.28
77062;BME280;65989;51.686;5.138;2023-01-30T03:58:02;101754.56;;;5.60;91.28
77062;BME280;65989;51.686;5.138;2023-01-30T04:00:30;101752.53;;;5.62;91.30
77062;BME280;65989;51.686;5.138;2023-01-30T04:02:56;101745.47;;;5.63;91.48
77062;BME280;65989;51.686;5.138;2023-01-30T04:05:22;101747.28;;;5.62;91.59
77062;BME280;65989;51.686;5.138;2023-01-30T04:07:47;101740.41;;;5.61;91.61
77062;BME280;65989;51.686;5.138;2023-01-30T04:10:13;101745.28;;;5.64;91.63
77062;BME280;65989;51.686;5.138;2023-01-30T04:12:44;101749.53;;;5.65;91.51
77062;BME280;65989;51.686;5.138;2023-01-30T04:15:10;101752.56;;;5.69;91.80
77062;BME280;65989;51.686;5.138;2023-01-30T04:17:35;101741.81;;;5.64;91.83
77062;BME280;65989;51.686;5.138;2023-01-30T04:20:01;101735.38;;;5.66;91.78
77062;BME280;65989;51.686;5.138;2023-01-30T04:22:26;101743.25;;;5.66;91.81
77062;BME280;65989;51.686;5.138;2023-01-30T04:24:51;101733.16;;;5.70;91.67
77062;BME280;65989;51.686;5.138;2023-01-30T04:27:17;101737.00;;;5.67;92.05
77062;BME280;65989;51.686;5.138;2023-01-30T04:29:42;101739.63;;;5.67;91.80
77062;BME280;65989;51.686;5.138;2023-01-30T04:32:08;101741.25;;;5.68;92.12
77062;BME280;65989;51.686;5.138;2023-01-30T04:34:33;101747.28;;;5.69;92.05
77062;BME280;65989;51.686;5.138;2023-01-30T04:36:58;101749.16;;;5.75;91.91
77062;BME280;65989;51.686;5.138;2023-01-30T04:39:24;101750.53;;;5.71;91.97
77062;BME280;65989;51.686;5.138;2023-01-30T04:41:49;101748.53;;;5.73;92.11
77062;BME280;65989;51.686;5.138;2023-01-30T04:44:15;101740.03;;;5.71;92.20
77062;BME280;65989;51.686;5.138;2023-01-30T04:46:40;101749.34;;;5.74;91.99
77062;BME280;65989;51.686;5.138;2023-01-30T04:49:06;101743.88;;;5.75;92.07
77062;BME280;65989;51.686;5.138;2023-01-30T04:51:31;101756.25;;;5.75;91.81
77062;BME280;65989;51.686;5.138;2023-01-30T04:53:56;101753.00;;;5.73;92.02
77062;BME280;65989;51.686;5.138;2023-01-30T04:56:22;101754.41;;;5.75;92.24
77062;BME280;65989;51.686;5.138;2023-01-30T04:58:47;101755.03;;;5.77;92.09
77062;BME280;65989;51.686;5.138;2023-01-30T05:01:34;101761.91;;;5.78;92.15
77062;BME280;65989;51.686;5.138;2023-01-30T05:04:00;101764.94;;;5.75;92.23
77062;BME280;65989;51.686;5.138;2023-01-30T05:06:26;101762.28;;;5.68;92.03
77062;BME280;65989;51.686;5.138;2023-01-30T05:08:53;101761.03;;;5.58;92.07
77062;BME280;65989;51.686;5.138;2023-01-30T05:11:20;101772.56;;;5.57;92.33
77062;BME280;65989;51.686;5.138;2023-01-30T05:13:46;101761.38;;;5.48;92.07
77062;BME280;65989;51.686;5.138;2023-01-30T05:16:12;101750.03;;;5.41;92.40
77062;BME280;65989;51.686;5.138;2023-01-30T05:18:38;101746.81;;;5.45;92.33
77062;BME280;65989;51.686;5.138;2023-01-30T05:21:09;101741.56;;;5.45;92.50
77062;BME280;65989;51.686;5.138;2023-01-30T05:23:35;101744.19;;;5.45;92.40
77062;BME280;65989;51.686;5.138;2023-01-30T05:26:01;101741.34;;;5.47;92.41
77062;BME280;65989;51.686;5.138;2023-01-30T05:28:27;101736.09;;;5.47;92.45
77062;BME280;65989;51.686;5.138;2023-01-30T05:30:54;101743.97;;;5.47;92.32
77062;BME280;65989;51.686;5.138;2023-01-30T05:33:19;101739.56;;;5.47;92.29
77062;BME280;65989;51.686;5.138;2023-01-30T05:35:48;101734.50;;;5.46;92.26
77062;BME280;65989;51.686;5.138;2023-01-30T05:38:14;101736.72;;;5.49;92.55
77062;BME280;65989;51.686;5.138;2023-01-30T05:40:40;101751.06;;;5.46;92.32
77062;BME280;65989;51.686;5.138;2023-01-30T05:43:06;101742.34;;;5.39;92.53
77062;BME280;65989;51.686;5.138;2023-01-30T05:45:31;101746.97;;;5.37;92.36
77062;BME280;65989;51.686;5.138;2023-01-30T05:47:57;101754.47;;;5.40;92.48
77062;BME280;65989;51.686;5.138;2023-01-30T05:50:22;101754.91;;;5.44;92.54
77062;BME280;65989;51.686;5.138;2023-01-30T05:52:48;101761.59;;;5.46;92.75
77062;BME280;65989;51.686;5.138;2023-01-30T05:55:13;101770.72;;;5.50;92.78
77062;BME280;65989;51.686;5.138;2023-01-30T05:57:39;101787.31;;;5.58;92.73
77062;BME280;65989;51.686;5.138;2023-01-30T06:00:05;101778.44;;;5.59;92.58
77062;BME280;65989;51.686;5.138;2023-01-30T06:02:30;101776.41;;;5.61;92.66
77062;BME280;65989;51.686;5.138;2023-01-30T06:04:56;101786.88;;;5.54;92.65
77062;BME280;65989;51.686;5.138;2023-01-30T06:07:22;101793.78;;;5.55;92.58
77062;BME280;65989;51.686;5.138;2023-01-30T06:09:47;101792.75;;;5.49;92.45
77062;BME280;65989;51.686;5.138;2023-01-30T06:12:12;101793.72;;;5.42;92.55
77062;BME280;65989;51.686;5.138;2023-01-30T06:14:38;101794.88;;;5.32;92.50
77062;BME280;65989;51.686;5.138;2023-01-30T06:17:03;101798.50;;;5.25;92.35
77062;BME280;65989;51.686;5.138;2023-01-30T06:19:29;101794.78;;;5.19;92.22
77062;BME280;65989;51.686;5.138;2023-01-30T06:21:54;101797.81;;;5.16;92.46
77062;BME280;65989;51.686;5.138;2023-01-30T06:24:19;101809.50;;;5.06;92.17
77062;BME280;65989;51.686;5.138;2023-01-30T06:26:45;101806.16;;;4.98;91.99
77062;BME280;65989;51.686;5.138;2023-01-30T06:29:10;101806.72;;;4.86;92.09
77062;BME280;65989;51.686;5.138;2023-01-30T06:31:35;101811.09;;;4.79;92.11
77062;BME280;65989;51.686;5.138;2023-01-30T06:34:03;101803.72;;;4.68;91.95
77062;BME280;65989;51.686;5.138;2023-01-30T06:36:29;101807.94;;;4.62;91.99
77062;BME280;65989;51.686;5.138;2023-01-30T06:38:54;101801.63;;;4.56;91.75
77062;BME280;65989;51.686;5.138;2023-01-30T06:41:22;101811.06;;;4.51;91.69
77062;BME280;65989;51.686;5.138;2023-01-30T06:43:47;101817.88;;;4.45;91.65
77062;BME280;65989;51.686;5.138;2023-01-30T06:46:13;101808.75;;;4.41;91.75
77062;BME280;65989;51.686;5.138;2023-01-30T06:48:38;101808.69;;;4.34;91.71
77062;BME280;65989;51.686;5.138;2023-01-30T06:51:06;101808.06;;;4.32;91.69
77062;BME280;65989;51.686;5.138;2023-01-30T06:53:32;101797.78;;;4.30;91.58
77062;BME280;65989;51.686;5.138;2023-01-30T06:56:00;101793.69;;;4.28;91.98
77062;BME280;65989;51.686;5.138;2023-01-30T06:58:26;101781.31;;;4.22;91.60
77062;BME280;65989;51.686;5.138;2023-01-30T07:00:51;101790.81;;;4.23;91.41
77062;BME280;65989;51.686;5.138;2023-01-30T07:03:17;101794.00;;;4.18;91.54
77062;BME280;65989;51.686;5.138;2023-01-30T07:05:44;101798.00;;;4.14;91.52
77062;BME280;65989;51.686;5.138;2023-01-30T07:08:10;101808.69;;;4.12;91.48
77062;BME280;65989;51.686;5.138;2023-01-30T07:10:36;101828.03;;;4.11;91.24
77062;BME280;65989;51.686;5.138;2023-01-30T07:13:03;101837.91;;;4.09;91.63
77062;BME280;65989;51.686;5.138;2023-01-30T07:15:29;101829.94;;;4.02;91.45
77062;BME280;65989;51.686;5.138;2023-01-30T07:17:54;101832.13;;;3.99;91.52
77062;BME280;65989;51.686;5.138;2023-01-30T07:20:20;101836.94;;;3.95;91.44
77062;BME280;65989;51.686;5.138;2023-01-30T07:22:53;101839.94;;;3.92;91.44
77062;BME280;65989;51.686;5.138;2023-01-30T07:25:20;101837.69;;;3.89;91.64
77062;BME280;65989;51.686;5.138;2023-01-30T07:27:59;101834.41;;;3.87;91.22
77062;BME280;65989;51.686;5.138;2023-01-30T07:30:26;101839.84;;;3.85;91.57
77062;BME280;65989;51.686;5.138;2023-01-30T07:32:54;101848.53;;;3.86;91.43
77062;BME280;65989;51.686;5.138;2023-01-30T07:35:21;101861.63;;;3.86;91.45
77062;BME280;65989;51.686;5.138;2023-01-30T07:37:47;101858.38;;;3.84;91.23
77062;BME280;65989;51.686;5.138;2023-01-30T07:40:13;101863.78;;;3.82;91.43
77062;BME280;65989;51.686;5.138;2023-01-30T07:42:39;101854.50;;;3.80;91.39
77062;BME280;65989;51.686;5.138;2023-01-30T07:45:05;101867.59;;;3.80;91.44
77062;BME280;65989;51.686;5.138;2023-01-30T07:47:30;101857.94;;;3.80;91.08
77062;BME280;65989;51.686;5.138;2023-01-30T07:49:56;101851.25;;;3.78;91.33
77062;BME280;65989;51.686;5.138;2023-01-30T07:52:21;101850.25;;;3.79;91.06
77062;BME280;65989;51.686;5.138;2023-01-30T07:54:46;101854.50;;;3.80;91.26
77062;BME280;65989;51.686;5.138;2023-01-30T07:57:12;101853.88;;;3.78;91.23
77062;BME280;65989;51.686;5.138;2023-01-30T07:59:37;101854.50;;;3.80;90.93
77062;BME280;65989;51.686;5.138;2023-01-30T08:02:03;101856.13;;;3.81;91.08
77062;BME280;65989;51.686;5.138;2023-01-30T08:04:28;101856.31;;;3.79;90.73
77062;BME280;65989;51.686;5.138;2023-01-30T08:06:54;101856.13;;;3.81;90.41
77062;BME280;65989;51.686;5.138;2023-01-30T08:09:19;101864.25;;;3.86;90.30
77062;BME280;65989;51.686;5.138;2023-01-30T08:11:44;101872.75;;;3.88;90.40
77062;BME280;65989;51.686;5.138;2023-01-30T08:14:10;101879.16;;;3.85;90.04
77062;BME280;65989;51.686;5.138;2023-01-30T08:16:37;101882.78;;;3.84;90.12
77062;BME280;65989;51.686;5.138;2023-01-30T08:19:04;101899.78;;;3.88;90.14
77062;BME280;65989;51.686;5.138;2023-01-30T08:21:33;101895.53;;;3.87;89.91
77062;BME280;65989;51.686;5.138;2023-01-30T08:24:01;101891.75;;;3.90;89.54
77062;BME280;65989;51.686;5.138;2023-01-30T08:26:27;101888.56;;;3.95;89.55
77062;BME280;65989;51.686;5.138;2023-01-30T08:28:52;101899.97;;;4.02;89.39
77062;BME280;65989;51.686;5.138;2023-01-30T08:31:20;101889.47;;;4.02;89.29
77062;BME280;65989;51.686;5.138;2023-01-30T08:34:02;101890.28;;;4.02;89.19
77062;BME280;65989;51.686;5.138;2023-01-30T08:36:27;101882.59;;;4.01;88.99
77062;BME280;65989;51.686;5.138;2023-01-30T08:38:52;101877.34;;;4.01;88.76
77062;BME280;65989;51.686;5.138;2023-01-30T08:41:21;101894.97;;;4.07;88.74
77062;BME280;65989;51.686;5.138;2023-01-30T08:43:46;101889.38;;;4.10;88.56
77062;BME280;65989;51.686;5.138;2023-01-30T08:46:12;101895.78;;;4.08;88.36
77062;BME280;65989;51.686;5.138;2023-01-30T08:48:40;101892.44;;;4.14;88.13
77062;BME280;65989;51.686;5.138;2023-01-30T08:51:55;101896.41;;;4.10;88.53
77062;BME280;65989;51.686;5.138;2023-01-30T08:54:28;101900.09;;;4.15;87.96
77062;BME280;65989;51.686;5.138;2023-01-30T08:56:54;101909.44;;;4.18;88.10
77062;BME280;65989;51.686;5.138;2023-01-30T08:59:19;101930.97;;;4.28;87.89
77062;BME280;65989;51.686;5.138;2023-01-30T09:01:45;101925.94;;;4.33;87.89
77062;BME280;65989;51.686;5.138;2023-01-30T09:04:16;101916.22;;;4.27;87.90
77062;BME280;65989;51.686;5.138;2023-01-30T09:06:44;101929.03;;;4.37;87.50
77062;BME280;65989;51.686;5.138;2023-01-30T09:09:09;101919.06;;;4.32;87.46
77062;BME280;65989;51.686;5.138;2023-01-30T09:11:35;101930.47;;;4.40;87.42
77062;BME280;65989;51.686;5.138;2023-01-30T09:14:00;101927.31;;;4.44;87.32
77062;BME280;65989;51.686;5.138;2023-01-30T09:16:26;101924.69;;;4.44;87.16
77062;BME280;65989;51.686;5.138;2023-01-30T09:18:51;101936.50;;;4.55;87.33
77062;BME280;65989;51.686;5.138;2023-01-30T09:21:19;101934.50;;;4.57;87.11
77062;BME280;65989;51.686;5.138;2023-01-30T09:23:46;101944.97;;;4.72;86.92
77062;BME280;65989;51.686;5.138;2023-01-30T09:26:11;101949.59;;;4.92;86.48
77062;BME280;65989;51.686;5.138;2023-01-30T09:28:37;101958.34;;;5.21;86.49
77062;BME280;65989;51.686;5.138;2023-01-30T09:31:03;101968.63;;;5.44;86.20
77062;BME280;65989;51.686;5.138;2023-01-30T09:33:28;101957.38;;;5.50;85.78
77062;BME280;65989;51.686;5.138;2023-01-30T09:35:54;101973.41;;;5.62;85.70
77062;BME280;65989;51.686;5.138;2023-01-30T09:38:19;101973.66;;;5.67;85.56
77062;BME280;65989;51.686;5.138;2023-01-30T09:43:26;101966.84;;;5.80;84.67
77062;BME280;65989;51.686;5.138;2023-01-30T09:51:24;101974.34;;;6.11;83.74
77062;BME280;65989;51.686;5.138;2023-01-30T09:54:07;101982.72;;;6.28;83.40
77062;BME280;65989;51.686;5.138;2023-01-30T09:56:38;101995.16;;;6.48;82.74
77062;BME280;65989;51.686;5.138;2023-01-30T09:59:03;101989.53;;;6.58;82.12
77062;BME280;65989;51.686;5.138;2023-01-30T10:04:35;101980.66;;;6.72;80.84
77062;BME280;65989;51.686;5.138;2023-01-30T10:07:17;101988.56;;;6.79;80.60
77062;BME280;65989;51.686;5.138;2023-01-30T10:15:50;101996.50;;;6.86;78.87
77062;BME280;65989;51.686;5.138;2023-01-30T10:26:38;102008.06;;;6.98;77.69
77062;BME280;65989;51.686;5.138;2023-01-30T10:29:19;102013.78;;;7.02;77.45
77062;BME280;65989;51.686;5.138;2023-01-30T10:37:06;102032.44;;;7.14;76.46
77062;BME280;65989;51.686;5.138;2023-01-30T10:42:27;102056.94;;;7.08;76.00
77062;BME280;65989;51.686;5.138;2023-01-30T10:45:07;102040.53;;;7.06;76.09
77062;BME280;65989;51.686;5.138;2023-01-30T10:48:14;102044.78;;;7.07;76.51
77062;BME280;65989;51.686;5.138;2023-01-30T10:50:51;102044.78;;;7.00;76.21
77062;BME280;65989;51.686;5.138;2023-01-30T10:53:31;102046.19;;;7.02;76.05
77062;BME280;65989;51.686;5.138;2023-01-30T10:56:18;102046.84;;;7.11;75.28
77062;BME280;65989;51.686;5.138;2023-01-30T10:59:21;102039.75;;;7.25;74.80
77062;BME280;65989;51.686;5.138;2023-01-30T11:01:54;102043.81;;;7.21;74.84
77062;BME280;65989;51.686;5.138;2023-01-30T11:04:31;102050.09;;;7.27;74.58
77062;BME280;65989;51.686;5.138;2023-01-30T11:07:01;102043.81;;;7.35;73.89
77062;BME280;65989;51.686;5.138;2023-01-30T11:09:47;102034.69;;;7.44;73.66
77062;BME280;65989;51.686;5.138;2023-01-30T11:12:13;102036.09;;;7.46;73.53
77062;BME280;65989;51.686;5.138;2023-01-30T11:14:52;102034.50;;;7.52;73.72
77062;BME280;65989;51.686;5.138;2023-01-30T11:17:20;102025.78;;;7.58;73.51
77062;BME280;65989;51.686;5.138;2023-01-30T11:19:53;102027.59;;;7.65;73.33
77062;BME280;65989;51.686;5.138;2023-01-30T11:22:23;102025.16;;;7.63;73.27
77062;BME280;65989;51.686;5.138;2023-01-30T11:25:20;102039.16;;;7.63;73.51
77062;BME280;65989;51.686;5.138;2023-01-30T11:28:00;102025.78;;;7.58;73.33
77062;BME280;65989;51.686;5.138;2023-01-30T11:30:29;102033.28;;;7.61;73.04
77062;BME280;65989;51.686;5.138;2023-01-30T11:33:30;102036.94;;;7.74;73.10
77062;BME280;65989;51.686;5.138;2023-01-30T11:36:06;102032.28;;;7.69;72.70
77062;BME280;65989;51.686;5.138;2023-01-30T11:41:22;102044.84;;;7.74;72.45
77062;BME280;65989;51.686;5.138;2023-01-30T11:43:47;102049.72;;;7.77;72.12
77062;BME280;65989;51.686;5.138;2023-01-30T11:46:16;102059.25;;;7.78;72.11
77062;BME280;65989;51.686;5.138;2023-01-30T11:48:53;102062.28;;;7.75;72.19
77062;BME280;65989;51.686;5.138;2023-01-30T11:51:21;102049.31;;;7.80;72.09
77062;BME280;65989;51.686;5.138;2023-01-30T11:54:03;102043.63;;;7.83;72.64
77062;BME280;65989;51.686;5.138;2023-01-30T11:57:00;102045.03;;;7.86;72.09
77062;BME280;65989;51.686;5.138;2023-01-30T11:59:31;102034.88;;;7.83;72.17
77062;BME280;65989;51.686;5.138;2023-01-30T12:02:34;102026.16;;;7.89;72.32
77062;BME280;65989;51.686;5.138;2023-01-30T12:05:37;102029.22;;;7.92;72.08
77062;BME280;65989;51.686;5.138;2023-01-30T12:08:25;102028.59;;;7.84;72.05
77062;BME280;65989;51.686;5.138;2023-01-30T12:10:58;102032.88;;;7.78;72.11
77062;BME280;65989;51.686;5.138;2023-01-30T12:13:37;102039.16;;;7.70;71.70
77062;BME280;65989;51.686;5.138;2023-01-30T12:16:18;102031.88;;;7.72;71.77
77062;BME280;65989;51.686;5.138;2023-01-30T12:18:51;102034.91;;;7.76;71.74
77062;BME280;65989;51.686;5.138;2023-01-30T12:21:28;102038.16;;;7.78;71.75
77062;BME280;65989;51.686;5.138;2023-01-30T12:24:04;102042.00;;;7.82;71.93
77062;BME280;65989;51.686;5.138;2023-01-30T12:26:46;102045.66;;;7.81;72.02
77062;BME280;65989;51.686;5.138;2023-01-30T12:29:33;102057.03;;;7.88;72.04
77062;BME280;65989;51.686;5.138;2023-01-30T12:32:11;102042.59;;;7.91;71.94
77062;BME280;65989;51.686;5.138;2023-01-30T12:34:38;102069.56;;;8.00;71.50
77062;BME280;65989;51.686;5.138;2023-01-30T12:43:01;102073.00;;;8.14;70.46
77062;BME280;65989;51.686;5.138;2023-01-30T12:45:20;102070.78;;;8.17;70.00
77062;BME280;65989;51.686;5.138;2023-01-30T12:51:02;102073.84;;;8.14;69.72
77062;BME280;65989;51.686;5.138;2023-01-30T12:53:38;102081.94;;;8.13;69.61
77062;BME280;65989;51.686;5.138;2023-01-30T13:08:32;102090.91;;;8.05;70.26
77062;BME280;65989;51.686;5.138;2023-01-30T13:11:16;102090.09;;;7.98;69.81
77062;BME280;65989;51.686;5.138;2023-01-30T13:20:54;102093.31;;;7.46;69.19
77062;BME280;65989;51.686;5.138;2023-01-30T13:26:07;102109.94;;;7.40;69.57
77062;BME280;65989;51.686;5.138;2023-01-30T13:28:58;102108.53;;;7.37;69.39
77062;BME280;65989;51.686;5.138;2023-01-30T13:31:29;102122.56;;;7.44;69.44
77062;BME280;65989;51.686;5.138;2023-01-30T13:34:04;102117.06;;;7.46;69.36
77062;BME280;65989;51.686;5.138;2023-01-30T13:39:32;102126.22;;;7.50;69.64
77062;BME280;65989;51.686;5.138;2023-01-30T13:42:01;102123.56;;;7.43;69.59
77062;BME280;65989;51.686;5.138;2023-01-30T13:44:30;102118.88;;;7.45;69.53
77062;BME280;65989;51.686;5.138;2023-01-30T13:53:08;102139.41;;;7.84;70.03
77062;BME280;65989;51.686;5.138;2023-01-30T14:00:53;102144.50;;;7.99;68.82
77062;BME280;65989;51.686;5.138;2023-01-30T14:03:30;102151.63;;;7.98;68.31
77062;BME280;65989;51.686;5.138;2023-01-30T14:08:29;102165.41;;;7.87;68.17
77062;BME280;65989;51.686;5.138;2023-01-30T14:10:57;102167.44;;;7.85;68.07
77062;BME280;65989;51.686;5.138;2023-01-30T14:13:24;102155.88;;;7.79;68.85
77062;BME280;65989;51.686;5.138;2023-01-30T14:15:54;102159.53;;;7.85;69.08
77062;BME280;65989;51.686;5.138;2023-01-30T14:18:27;102177.81;;;7.86;68.84
77062;BME280;65989;51.686;5.138;2023-01-30T14:21:15;102176.78;;;7.87;68.96
77062;BME280;65989;51.686;5.138;2023-01-30T14:23:59;102179.00;;;7.84;69.23
77062;BME280;65989;51.686;5.138;2023-01-30T14:35:23;102203.53;;;7.71;69.23
77062;BME280;65989;51.686;5.138;2023-01-30T14:40:29;102220.59;;;7.68;69.86
77062;BME280;65989;51.686;5.138;2023-01-30T14:45:56;102222.84;;;7.71;69.96
77062;BME280;65989;51.686;5.138;2023-01-30T14:53:59;102247.09;;;7.46;70.18
77062;BME280;65989;51.686;5.138;2023-01-30T14:56:43;102258.06;;;7.43;70.53
77062;BME280;65989;51.686;5.138;2023-01-30T15:05:13;102270.97;;;7.31;71.08
77062;BME280;65989;51.686;5.138;2023-01-30T15:07:49;102274.41;;;7.25;70.51
77062;BME280;65989;51.686;5.138;2023-01-30T15:32:30;102293.66;;;7.26;70.86
77062;BME280;65989;51.686;5.138;2023-01-30T15:34:59;102291.38;;;7.16;71.03
77062;BME280;65989;51.686;5.138;2023-01-30T15:37:36;102298.09;;;7.18;70.96
77062;BME280;65989;51.686;5.138;2023-01-30T15:51:38;102312.94;;;6.91;71.39
77062;BME280;65989;51.686;5.138;2023-01-30T15:54:35;102331.13;;;6.86;71.38
77062;BME280;65989;51.686;5.138;2023-01-30T15:57:03;102334.28;;;6.75;71.14
77062;BME280;65989;51.686;5.138;2023-01-30T15:59:30;102340.53;;;6.73;71.28
77062;BME280;65989;51.686;5.138;2023-01-30T16:02:34;102350.41;;;6.65;71.90
77062;BME280;65989;51.686;5.138;2023-01-30T16:08:54;102352.59;;;6.39;72.18
77062;BME280;65989;51.686;5.138;2023-01-30T16:11:38;102355.47;;;6.23;72.78